createdAt,value
2018-12-12T00:00:01.023Z,1016.61
2018-12-12T00:01:01.044Z,1016.61
2018-12-12T00:02:01.074Z,1016.61
2018-12-12T00:03:01.090Z,1016.60
2018-12-12T00:04:01.095Z,1016.63
2018-12-12T00:05:22.143Z,1016.60
2018-12-12T00:06:01.155Z,1016.60
2018-12-12T00:07:01.174Z,1016.59
2018-12-12T00:08:01.204Z,1016.64
2018-12-12T00:09:01.210Z,1016.61
2018-12-12T00:10:01.226Z,1016.57
2018-12-12T00:11:22.265Z,1016.60
2018-12-12T00:12:01.288Z,1016.61
2018-12-12T00:13:01.283Z,1016.62
2018-12-12T00:14:01.317Z,1016.57
2018-12-12T00:15:01.329Z,1016.60
2018-12-12T00:16:01.381Z,1016.58
2018-12-12T00:17:22.385Z,1016.57
2018-12-12T00:18:01.378Z,1016.55
2018-12-12T00:19:01.400Z,1016.59
2018-12-12T00:20:01.450Z,1016.52
2018-12-12T00:21:01.446Z,1016.56
2018-12-12T00:22:01.466Z,1016.54
2018-12-12T00:23:22.526Z,1016.52
2018-12-12T00:24:01.497Z,1016.53
2018-12-12T00:25:01.520Z,1016.54
2018-12-12T00:26:01.533Z,1016.58
2018-12-12T00:27:01.562Z,1016.59
2018-12-12T00:28:01.593Z,1016.59
2018-12-12T00:29:22.632Z,1016.62
2018-12-12T00:30:01.634Z,1016.62
2018-12-12T00:31:01.630Z,1016.62
2018-12-12T00:32:01.658Z,1016.61
2018-12-12T00:33:01.665Z,1016.63
2018-12-12T00:34:01.699Z,1016.65
2018-12-12T00:35:22.738Z,1016.65
2018-12-12T00:36:01.735Z,1016.66
2018-12-12T00:37:01.761Z,1016.64
2018-12-12T00:38:01.772Z,1016.69
2018-12-12T00:39:01.803Z,1016.61
2018-12-12T00:40:01.826Z,1016.62
2018-12-12T00:41:22.853Z,1016.67
2018-12-12T00:42:01.870Z,1016.67
2018-12-12T00:43:01.870Z,1016.70
2018-12-12T00:44:01.888Z,1016.74
2018-12-12T00:45:01.924Z,1016.75
2018-12-12T00:46:01.930Z,1016.76
2018-12-12T00:47:22.974Z,1016.75
2018-12-12T00:48:01.971Z,1016.77
2018-12-12T00:49:01.991Z,1016.80
2018-12-12T00:50:02.006Z,1016.79
2018-12-12T00:51:02.027Z,1016.77
2018-12-12T00:52:02.041Z,1016.83
2018-12-12T00:53:23.079Z,1016.78
2018-12-12T00:54:02.079Z,1016.82
2018-12-12T00:55:02.102Z,1016.84
2018-12-12T00:56:02.130Z,1016.85
2018-12-12T00:57:02.145Z,1016.87
2018-12-12T00:58:02.164Z,1016.88
2018-12-12T00:59:23.235Z,1016.88
2018-12-12T01:00:02.201Z,1016.87
2018-12-12T01:01:02.223Z,1016.91
2018-12-12T01:02:02.271Z,1016.86
2018-12-12T01:03:02.261Z,1016.89
2018-12-12T01:04:02.283Z,1016.88
2018-12-12T01:05:23.318Z,1016.91
2018-12-12T01:06:02.310Z,1016.91
2018-12-12T01:07:02.337Z,1016.94
2018-12-12T01:08:02.360Z,1016.94
2018-12-12T01:09:02.388Z,1016.94
2018-12-12T01:10:02.405Z,1016.98
2018-12-12T01:11:23.437Z,1016.97
2018-12-12T01:12:02.439Z,1016.98
2018-12-12T01:13:02.467Z,1016.99
2018-12-12T01:14:02.471Z,1016.97
2018-12-12T01:15:02.491Z,1016.96
2018-12-12T01:16:02.534Z,1017.01
2018-12-12T01:17:23.555Z,1017.01
2018-12-12T01:18:02.545Z,1017.04
2018-12-12T01:19:02.571Z,1017.01
2018-12-12T01:20:02.621Z,1017.03
2018-12-12T01:21:02.625Z,1017.05
2018-12-12T01:22:02.624Z,1017.08
2018-12-12T01:23:23.672Z,1017.08
2018-12-12T01:24:02.678Z,1017.05
2018-12-12T01:25:02.683Z,1017.10
2018-12-12T01:26:02.708Z,1017.15
2018-12-12T01:27:02.735Z,1017.15
2018-12-12T01:28:02.758Z,1017.18
2018-12-12T01:29:23.794Z,1017.19
2018-12-12T01:30:02.784Z,1017.19
2018-12-12T01:31:02.814Z,1017.20
2018-12-12T01:32:02.830Z,1017.22
2018-12-12T01:33:02.846Z,1017.27
2018-12-12T01:34:02.868Z,1017.25
2018-12-12T01:35:23.905Z,1017.23
2018-12-12T01:36:02.938Z,1017.24
2018-12-12T01:37:02.931Z,1017.27
2018-12-12T01:38:02.936Z,1017.28
2018-12-12T01:39:03.070Z,1017.31
2018-12-12T01:40:02.986Z,1017.31
2018-12-12T01:41:24.009Z,1017.28
2018-12-12T01:42:03.026Z,1017.32
2018-12-12T01:43:03.043Z,1017.31
2018-12-12T01:44:03.067Z,1017.28
2018-12-12T01:45:03.082Z,1017.29
2018-12-12T01:46:03.103Z,1017.25
2018-12-12T01:47:24.139Z,1017.27
2018-12-12T01:48:03.139Z,1017.27
2018-12-12T01:49:03.162Z,1017.29
2018-12-12T01:50:03.180Z,1017.30
2018-12-12T01:51:03.194Z,1017.30
2018-12-12T01:52:03.235Z,1017.26
2018-12-12T01:53:24.255Z,1017.33
2018-12-12T01:54:03.252Z,1017.29
2018-12-12T01:55:03.294Z,1017.33
2018-12-12T01:56:03.304Z,1017.31
2018-12-12T01:57:03.320Z,1017.30
2018-12-12T01:58:03.341Z,1017.29
2018-12-12T01:59:24.370Z,1017.30
2018-12-12T02:00:03.383Z,1017.32
2018-12-12T02:01:03.402Z,1017.37
2018-12-12T02:02:03.409Z,1017.34
2018-12-12T02:03:03.436Z,1017.33
2018-12-12T02:04:03.469Z,1017.34
2018-12-12T02:05:24.515Z,1017.34
2018-12-12T02:06:03.501Z,1017.38
2018-12-12T02:07:03.511Z,1017.38
2018-12-12T02:08:03.553Z,1017.38
2018-12-12T02:09:03.556Z,1017.41
2018-12-12T02:10:03.579Z,1017.42
2018-12-12T02:11:24.609Z,1017.46
2018-12-12T02:12:03.614Z,1017.46
2018-12-12T02:13:03.629Z,1017.45
2018-12-12T02:14:03.662Z,1017.47
2018-12-12T02:15:03.666Z,1017.44
2018-12-12T02:16:03.695Z,1017.49
2018-12-12T02:17:24.723Z,1017.52
2018-12-12T02:18:03.741Z,1017.49
2018-12-12T02:19:03.753Z,1017.49
2018-12-12T02:20:03.770Z,1017.50
2018-12-12T02:21:03.786Z,1017.52
2018-12-12T02:22:03.818Z,1017.54
2018-12-12T02:23:24.842Z,1017.54
2018-12-12T02:24:03.841Z,1017.53
2018-12-12T02:25:03.850Z,1017.54
2018-12-12T02:26:03.888Z,1017.55
2018-12-12T02:27:03.900Z,1017.55
2018-12-12T02:28:03.922Z,1017.54
2018-12-12T02:29:24.967Z,1017.56
2018-12-12T02:30:03.969Z,1017.60
2018-12-12T02:31:03.984Z,1017.59
2018-12-12T02:32:03.997Z,1017.62
2018-12-12T02:33:04.055Z,1017.64
2018-12-12T02:34:04.039Z,1017.64
2018-12-12T02:35:27.117Z,1017.65
2018-12-12T02:36:04.085Z,1017.64
2018-12-12T02:37:04.117Z,1017.67
2018-12-12T02:38:04.124Z,1017.69
2018-12-12T02:39:04.150Z,1017.69
2018-12-12T02:40:04.150Z,1017.73
2018-12-12T02:41:25.194Z,1017.70
2018-12-12T02:42:04.206Z,1017.73
2018-12-12T02:43:04.217Z,1017.73
2018-12-12T02:44:04.243Z,1017.72
2018-12-12T02:45:04.253Z,1017.74
2018-12-12T02:46:04.283Z,1017.71
2018-12-12T02:47:25.361Z,1017.72
2018-12-12T02:48:04.313Z,1017.78
2018-12-12T02:49:04.354Z,1017.77
2018-12-12T02:50:04.358Z,1017.80
2018-12-12T02:51:04.375Z,1017.77
2018-12-12T02:52:04.399Z,1017.80
2018-12-12T02:53:25.434Z,1017.78
2018-12-12T02:54:04.456Z,1017.81
2018-12-12T02:55:04.453Z,1017.85
2018-12-12T02:56:04.471Z,1017.84
2018-12-12T02:57:04.515Z,1017.85
2018-12-12T02:58:04.512Z,1017.85
2018-12-12T02:59:25.548Z,1017.85
2018-12-12T03:00:04.554Z,1017.85
2018-12-12T03:01:04.573Z,1017.85
2018-12-12T03:02:04.594Z,1017.87
2018-12-12T03:03:04.615Z,1017.86
2018-12-12T03:04:04.624Z,1017.87
2018-12-12T03:05:25.673Z,1017.86
2018-12-12T03:06:04.673Z,1017.89
2018-12-12T03:07:04.703Z,1017.91
2018-12-12T03:08:04.731Z,1017.87
2018-12-12T03:09:04.727Z,1017.91
2018-12-12T03:10:04.762Z,1017.88
2018-12-12T03:11:25.791Z,1017.87
2018-12-12T03:12:04.789Z,1017.86
2018-12-12T03:13:04.826Z,1017.84
2018-12-12T03:14:04.829Z,1017.89
2018-12-12T03:15:04.842Z,1017.85
2018-12-12T03:16:04.888Z,1017.88
2018-12-12T03:17:25.916Z,1017.89
2018-12-12T03:18:04.931Z,1017.88
2018-12-12T03:19:04.949Z,1017.92
2018-12-12T03:20:07.729Z,1017.94
2018-12-12T03:21:04.966Z,1017.97
2018-12-12T03:22:04.978Z,1017.96
2018-12-12T03:23:26.020Z,1018.00
2018-12-12T03:24:05.052Z,1017.99
2018-12-12T03:25:05.050Z,1018.03
2018-12-12T03:26:05.076Z,1018.03
2018-12-12T03:27:05.086Z,1018.03
2018-12-12T03:28:05.101Z,1018.07
2018-12-12T03:29:26.160Z,1018.10
2018-12-12T03:30:05.155Z,1018.09
2018-12-12T03:31:05.170Z,1018.13
2018-12-12T03:32:05.201Z,1018.08
2018-12-12T03:33:05.205Z,1018.17
2018-12-12T03:34:05.235Z,1018.17
2018-12-12T03:35:27.287Z,1018.14
2018-12-12T03:36:05.267Z,1018.20
2018-12-12T03:37:05.299Z,1018.20
2018-12-12T03:38:05.321Z,1018.22
2018-12-12T03:39:05.318Z,1018.22
2018-12-12T03:40:05.350Z,1018.21
2018-12-12T03:41:26.373Z,1018.25
2018-12-12T03:42:05.377Z,1018.24
2018-12-12T03:43:05.397Z,1018.25
2018-12-12T03:44:05.446Z,1018.26
2018-12-12T03:45:05.432Z,1018.28
2018-12-12T03:46:05.451Z,1018.27
2018-12-12T03:47:26.487Z,1018.28
2018-12-12T03:48:05.501Z,1018.29
2018-12-12T03:49:05.512Z,1018.31
2018-12-12T03:50:05.540Z,1018.34
2018-12-12T03:51:05.547Z,1018.32
2018-12-12T03:52:05.588Z,1018.29
2018-12-12T03:53:26.615Z,1018.33
2018-12-12T03:54:05.616Z,1018.31
2018-12-12T03:55:05.641Z,1018.33
2018-12-12T03:56:05.652Z,1018.34
2018-12-12T03:57:05.678Z,1018.32
2018-12-12T03:58:05.690Z,1018.34
2018-12-12T03:59:26.736Z,1018.35
2018-12-12T04:00:05.752Z,1018.40
2018-12-12T04:01:05.804Z,1018.44
2018-12-12T04:02:05.794Z,1018.49
2018-12-12T04:03:05.801Z,1018.50
2018-12-12T04:04:05.815Z,1018.51
2018-12-12T04:05:26.856Z,1018.51
2018-12-12T04:06:05.853Z,1018.52
2018-12-12T04:07:05.880Z,1018.53
2018-12-12T04:08:05.903Z,1018.54
2018-12-12T04:09:05.908Z,1018.61
2018-12-12T04:10:05.949Z,1018.60
2018-12-12T04:11:26.971Z,1018.63
2018-12-12T04:12:05.975Z,1018.64
2018-12-12T04:13:05.989Z,1018.63
2018-12-12T04:14:06.015Z,1018.62
2018-12-12T04:15:06.023Z,1018.64
2018-12-12T04:16:06.044Z,1018.66
2018-12-12T04:17:27.092Z,1018.66
2018-12-12T04:18:06.077Z,1018.68
2018-12-12T04:19:06.129Z,1018.70
2018-12-12T04:20:06.152Z,1018.65
2018-12-12T04:21:06.147Z,1018.69
2018-12-12T04:22:06.162Z,1018.68
2018-12-12T04:23:27.208Z,1018.70
2018-12-12T04:24:06.200Z,1018.77
2018-12-12T04:25:06.234Z,1018.78
2018-12-12T04:26:06.235Z,1018.75
2018-12-12T04:27:06.278Z,1018.75
2018-12-12T04:28:06.296Z,1018.76
2018-12-12T04:29:27.319Z,1018.73
2018-12-12T04:30:06.328Z,1018.78
2018-12-12T04:31:06.339Z,1018.78
2018-12-12T04:32:06.358Z,1018.82
2018-12-12T04:33:06.389Z,1018.79
2018-12-12T04:34:06.398Z,1018.79
2018-12-12T04:35:27.434Z,1018.82
2018-12-12T04:36:06.444Z,1018.80
2018-12-12T04:37:06.455Z,1018.73
2018-12-12T04:38:06.495Z,1018.77
2018-12-12T04:39:06.502Z,1018.81
2018-12-12T04:40:06.556Z,1018.83
2018-12-12T04:41:27.582Z,1018.78
2018-12-12T04:42:06.564Z,1018.79
2018-12-12T04:43:06.591Z,1018.78
2018-12-12T04:44:06.626Z,1018.82
2018-12-12T04:45:06.614Z,1018.83
2018-12-12T04:46:06.684Z,1018.84
2018-12-12T04:47:27.674Z,1018.85
2018-12-12T04:48:06.668Z,1018.90
2018-12-12T04:49:06.766Z,1018.88
2018-12-12T04:50:06.723Z,1018.90
2018-12-12T04:51:06.757Z,1018.88
2018-12-12T04:52:06.762Z,1018.87
2018-12-12T04:53:27.810Z,1018.88
2018-12-12T04:54:07.065Z,1018.86
2018-12-12T04:55:06.835Z,1018.87
2018-12-12T04:56:06.848Z,1018.91
2018-12-12T04:57:06.934Z,1018.89
2018-12-12T04:58:06.887Z,1018.86
2018-12-12T04:59:27.913Z,1018.85
2018-12-12T05:00:07.065Z,1018.86
2018-12-12T05:01:06.941Z,1018.89
2018-12-12T05:02:06.993Z,1018.92
2018-12-12T05:03:06.993Z,1018.88
2018-12-12T05:04:07.020Z,1018.90
2018-12-12T05:05:28.030Z,1018.91
2018-12-12T05:06:07.045Z,1018.91
2018-12-12T05:07:07.056Z,1018.95
2018-12-12T05:08:07.086Z,1018.92
2018-12-12T05:09:07.100Z,1018.92
2018-12-12T05:10:07.131Z,1018.95
2018-12-12T05:11:28.145Z,1018.97
2018-12-12T05:12:07.152Z,1018.97
2018-12-12T05:13:07.205Z,1018.95
2018-12-12T05:14:07.196Z,1019.02
2018-12-12T05:15:07.196Z,1018.99
2018-12-12T05:16:07.236Z,1019.03
2018-12-12T05:17:28.264Z,1019.04
2018-12-12T05:18:07.262Z,1019.10
2018-12-12T05:19:07.318Z,1019.08
2018-12-12T05:20:07.307Z,1019.07
2018-12-12T05:21:07.326Z,1019.07
2018-12-12T05:22:07.340Z,1019.10
2018-12-12T05:23:28.413Z,1019.10
2018-12-12T05:24:07.389Z,1019.14
2018-12-12T05:25:07.481Z,1019.18
2018-12-12T05:26:07.419Z,1019.16
2018-12-12T05:27:07.494Z,1019.17
2018-12-12T05:28:07.479Z,1019.24
2018-12-12T05:29:28.501Z,1019.21
2018-12-12T05:30:07.523Z,1019.20
2018-12-12T05:31:07.555Z,1019.19
2018-12-12T05:32:07.553Z,1019.23
2018-12-12T05:33:07.567Z,1019.21
2018-12-12T05:34:07.587Z,1019.23
2018-12-12T05:35:28.617Z,1019.22
2018-12-12T05:36:07.621Z,1019.29
2018-12-12T05:37:07.660Z,1019.25
2018-12-12T05:38:07.684Z,1019.26
2018-12-12T05:39:07.683Z,1019.31
2018-12-12T05:40:07.697Z,1019.31
2018-12-12T05:41:28.748Z,1019.34
2018-12-12T05:42:07.770Z,1019.32
2018-12-12T05:43:07.780Z,1019.35
2018-12-12T05:44:07.785Z,1019.35
2018-12-12T05:45:07.795Z,1019.37
2018-12-12T05:46:07.821Z,1019.34
2018-12-12T05:47:28.859Z,1019.35
2018-12-12T05:48:07.849Z,1019.33
2018-12-12T05:49:07.885Z,1019.34
2018-12-12T05:50:07.897Z,1019.37
2018-12-12T05:51:07.935Z,1019.33
2018-12-12T05:52:07.939Z,1019.38
2018-12-12T05:53:28.969Z,1019.34
2018-12-12T05:54:07.971Z,1019.34
2018-12-12T05:55:07.993Z,1019.31
2018-12-12T05:56:13.894Z,1019.36
2018-12-12T05:57:08.051Z,1019.34
2018-12-12T05:58:08.053Z,1019.33
2018-12-12T05:59:29.114Z,1019.38
2018-12-12T06:00:08.145Z,1019.35
2018-12-12T06:01:08.245Z,1019.36
2018-12-12T06:02:08.151Z,1019.39
2018-12-12T06:03:08.156Z,1019.40
2018-12-12T06:04:08.168Z,1019.35
2018-12-12T06:05:29.205Z,1019.41
2018-12-12T06:06:08.235Z,1019.40
2018-12-12T06:07:08.652Z,1019.44
2018-12-12T06:08:08.252Z,1019.43
2018-12-12T06:09:08.515Z,1019.46
2018-12-12T06:10:08.366Z,1019.45
2018-12-12T06:11:29.324Z,1019.52
2018-12-12T06:12:08.370Z,1019.51
2018-12-12T06:13:08.394Z,1019.49
2018-12-12T06:14:09.544Z,1019.53
2018-12-12T06:15:08.412Z,1019.54
2018-12-12T06:16:08.521Z,1019.54
2018-12-12T06:17:29.440Z,1019.55
2018-12-12T06:18:08.499Z,1019.58
2018-12-12T06:19:08.469Z,1019.61
2018-12-12T06:20:08.494Z,1019.62
2018-12-12T06:21:08.529Z,1019.63
2018-12-12T06:22:08.519Z,1019.65
2018-12-12T06:23:29.576Z,1019.65
2018-12-12T06:24:08.568Z,1019.62
2018-12-12T06:25:08.599Z,1019.55
2018-12-12T06:26:08.623Z,1019.58
2018-12-12T06:27:08.623Z,1019.60
2018-12-12T06:28:08.639Z,1019.60
2018-12-12T06:29:29.702Z,1019.62
2018-12-12T06:30:08.677Z,1019.63
2018-12-12T06:31:08.693Z,1019.63
2018-12-12T06:32:08.722Z,1019.66
2018-12-12T06:33:08.753Z,1019.66
2018-12-12T06:34:08.788Z,1019.65
2018-12-12T06:35:29.810Z,1019.67
2018-12-12T06:36:08.798Z,1019.73
2018-12-12T06:37:08.867Z,1019.67
2018-12-12T06:38:08.838Z,1019.69
2018-12-12T06:39:08.870Z,1019.73
2018-12-12T06:40:08.870Z,1019.71
2018-12-12T06:41:29.978Z,1019.74
2018-12-12T06:42:08.909Z,1019.75
2018-12-12T06:43:08.926Z,1019.81
2018-12-12T06:44:08.948Z,1019.77
2018-12-12T06:45:08.981Z,1019.79
2018-12-12T06:46:08.979Z,1019.80
2018-12-12T06:47:30.019Z,1019.81
2018-12-12T06:48:09.030Z,1019.84
2018-12-12T06:49:09.056Z,1019.87
2018-12-12T06:50:09.112Z,1019.90
2018-12-12T06:51:09.166Z,1019.91
2018-12-12T06:52:09.105Z,1019.93
2018-12-12T06:53:30.144Z,1019.91
2018-12-12T06:54:09.143Z,1019.97
2018-12-12T06:55:09.159Z,1019.96
2018-12-12T06:56:09.189Z,1019.98
2018-12-12T06:57:09.201Z,1019.97
2018-12-12T06:58:09.235Z,1020.01
2018-12-12T06:59:30.261Z,1020.04
2018-12-12T07:00:09.271Z,1020.00
2018-12-12T07:01:09.279Z,1020.05
2018-12-12T07:02:09.296Z,1020.09
2018-12-12T07:03:09.311Z,1020.13
2018-12-12T07:04:09.417Z,1020.10
2018-12-12T07:05:30.389Z,1020.11
2018-12-12T07:06:09.390Z,1020.09
2018-12-12T07:07:09.407Z,1020.09
2018-12-12T07:08:09.413Z,1020.08
2018-12-12T07:09:09.465Z,1020.09
2018-12-12T07:10:09.470Z,1020.07
2018-12-12T07:11:30.500Z,1020.10
2018-12-12T07:12:09.504Z,1020.14
2018-12-12T07:13:09.526Z,1020.12
2018-12-12T07:14:09.534Z,1020.17
2018-12-12T07:15:09.559Z,1020.20
2018-12-12T07:16:09.573Z,1020.18
2018-12-12T07:17:30.602Z,1020.21
2018-12-12T07:18:09.624Z,1020.22
2018-12-12T07:19:09.626Z,1020.25
2018-12-12T07:20:09.640Z,1020.25
2018-12-12T07:21:09.687Z,1020.27
2018-12-12T07:22:09.693Z,1020.29
2018-12-12T07:23:30.723Z,1020.23
2018-12-12T07:24:09.728Z,1020.22
2018-12-12T07:25:09.751Z,1020.21
2018-12-12T07:26:09.782Z,1020.26
2018-12-12T07:27:09.787Z,1020.25
2018-12-12T07:28:09.795Z,1020.26
2018-12-12T07:29:30.837Z,1020.29
2018-12-12T07:30:09.841Z,1020.28
2018-12-12T07:31:09.860Z,1020.30
2018-12-12T07:32:10.043Z,1020.29
2018-12-12T07:33:09.912Z,1020.32
2018-12-12T07:34:09.936Z,1020.36
2018-12-12T07:35:30.962Z,1020.39
2018-12-12T07:36:09.953Z,1020.36
2018-12-12T07:37:09.991Z,1020.38
2018-12-12T07:38:10.006Z,1020.36
2018-12-12T07:39:10.032Z,1020.36
2018-12-12T07:40:10.046Z,1020.36
2018-12-12T07:41:31.086Z,1020.38
2018-12-12T07:42:10.072Z,1020.41
2018-12-12T07:43:10.137Z,1020.43
2018-12-12T07:44:10.114Z,1020.41
2018-12-12T07:45:10.158Z,1020.43
2018-12-12T07:46:10.166Z,1020.46
2018-12-12T07:47:31.201Z,1020.52
2018-12-12T07:48:10.246Z,1020.44
2018-12-12T07:49:10.328Z,1020.49
2018-12-12T07:50:10.239Z,1020.49
2018-12-12T07:51:10.303Z,1020.49
2018-12-12T07:52:10.267Z,1020.52
2018-12-12T07:53:31.316Z,1020.55
2018-12-12T07:54:10.368Z,1020.52
2018-12-12T07:55:10.337Z,1020.52
2018-12-12T07:56:10.341Z,1020.57
2018-12-12T07:57:10.371Z,1020.57
2018-12-12T07:58:10.385Z,1020.54
2018-12-12T07:59:31.421Z,1020.54
2018-12-12T08:00:10.434Z,1020.52
2018-12-12T08:01:10.473Z,1020.56
2018-12-12T08:02:10.482Z,1020.55
2018-12-12T08:03:10.490Z,1020.61
2018-12-12T08:04:10.506Z,1020.66
2018-12-12T08:05:31.553Z,1020.71
2018-12-12T08:06:10.546Z,1020.72
2018-12-12T08:07:10.558Z,1020.74
2018-12-12T08:08:10.600Z,1020.75
2018-12-12T08:09:10.605Z,1020.70
2018-12-12T08:10:10.638Z,1020.75
2018-12-12T08:11:31.680Z,1020.70
2018-12-12T08:12:10.662Z,1020.66
2018-12-12T08:13:10.692Z,1020.66
2018-12-12T08:14:10.709Z,1020.67
2018-12-12T08:15:10.710Z,1020.69
2018-12-12T08:16:10.743Z,1020.67
2018-12-12T08:17:31.779Z,1020.67
2018-12-12T08:18:10.785Z,1020.68
2018-12-12T08:19:10.806Z,1020.75
2018-12-12T08:20:10.809Z,1020.74
2018-12-12T08:21:10.827Z,1020.75
2018-12-12T08:22:10.866Z,1020.73
2018-12-12T08:23:31.892Z,1020.74
2018-12-12T08:24:10.896Z,1020.73
2018-12-12T08:25:10.914Z,1020.75
2018-12-12T08:26:10.935Z,1020.78
2018-12-12T08:27:10.971Z,1020.77
2018-12-12T08:28:10.969Z,1020.78
2018-12-12T08:29:32.000Z,1020.80
2018-12-12T08:30:11.015Z,1020.77
2018-12-12T08:31:11.031Z,1020.81
2018-12-12T08:32:11.064Z,1020.81
2018-12-12T08:33:11.497Z,1020.81
2018-12-12T08:34:11.080Z,1020.79
2018-12-12T08:35:32.130Z,1020.77
2018-12-12T08:36:11.125Z,1020.80
2018-12-12T08:37:11.143Z,1020.79
2018-12-12T08:38:11.182Z,1020.78
2018-12-12T08:39:11.188Z,1020.78
2018-12-12T08:40:11.212Z,1020.78
2018-12-12T08:41:32.258Z,1020.80
2018-12-12T08:42:11.242Z,1020.79
2018-12-12T08:43:11.264Z,1020.75
2018-12-12T08:44:11.288Z,1020.83
2018-12-12T08:45:11.304Z,1020.87
2018-12-12T08:46:11.351Z,1020.87
2018-12-12T08:47:32.364Z,1020.91
2018-12-12T08:48:11.388Z,1020.91
2018-12-12T08:49:11.429Z,1020.89
2018-12-12T08:50:11.398Z,1020.93
2018-12-12T08:51:11.429Z,1020.91
2018-12-12T08:52:11.482Z,1020.90
2018-12-12T08:53:32.553Z,1020.94
2018-12-12T08:54:11.499Z,1020.95
2018-12-12T08:55:17.427Z,1020.95
2018-12-12T08:56:11.527Z,1020.97
2018-12-12T08:57:11.540Z,1020.99
2018-12-12T08:58:11.577Z,1020.93
2018-12-12T08:59:32.587Z,1020.97
2018-12-12T09:00:11.587Z,1020.98
2018-12-12T09:01:11.620Z,1021.02
2018-12-12T09:02:11.635Z,1021.00
2018-12-12T09:03:17.405Z,1021.03
2018-12-12T09:04:11.678Z,1021.04
2018-12-12T09:05:32.714Z,1021.07
2018-12-12T09:06:11.731Z,1021.08
2018-12-12T09:07:11.736Z,1021.10
2018-12-12T09:08:11.744Z,1021.10
2018-12-12T09:09:11.782Z,1021.14
2018-12-12T09:10:11.792Z,1021.12
2018-12-12T09:11:32.830Z,1021.11
2018-12-12T09:12:11.838Z,1021.11
2018-12-12T09:13:11.855Z,1021.14
2018-12-12T09:14:11.881Z,1021.17
2018-12-12T09:15:11.888Z,1021.19
2018-12-12T09:16:12.036Z,1021.15
2018-12-12T09:17:32.958Z,1021.17
2018-12-12T09:18:11.943Z,1021.20
2018-12-12T09:19:11.963Z,1021.22
2018-12-12T09:20:11.994Z,1021.24
2018-12-12T09:21:12.007Z,1021.21
2018-12-12T09:22:12.022Z,1021.23
2018-12-12T09:23:33.079Z,1021.20
2018-12-12T09:24:12.053Z,1021.20
2018-12-12T09:25:12.101Z,1021.23
2018-12-12T09:26:12.108Z,1021.22
2018-12-12T09:27:12.115Z,1021.26
2018-12-12T09:28:12.152Z,1021.23
2018-12-12T09:29:33.185Z,1021.26
2018-12-12T09:30:12.185Z,1021.30
2018-12-12T09:31:12.207Z,1021.25
2018-12-12T09:32:12.213Z,1021.22
2018-12-12T09:33:12.228Z,1021.24
2018-12-12T09:34:12.279Z,1021.29
2018-12-12T09:35:33.310Z,1021.22
2018-12-12T09:36:12.314Z,1021.21
2018-12-12T09:37:12.323Z,1021.21
2018-12-12T09:38:12.335Z,1021.22
2018-12-12T09:39:12.369Z,1021.24
2018-12-12T09:40:12.376Z,1021.26
2018-12-12T09:41:33.412Z,1021.26
2018-12-12T09:42:12.428Z,1021.24
2018-12-12T09:43:12.435Z,1021.23
2018-12-12T09:44:12.493Z,1021.20
2018-12-12T09:45:12.481Z,1021.19
2018-12-12T09:46:12.491Z,1021.24
2018-12-12T09:47:33.524Z,1021.16
2018-12-12T09:48:19.038Z,1021.20
2018-12-12T09:49:12.549Z,1021.18
2018-12-12T09:50:12.581Z,1021.17
2018-12-12T09:51:12.602Z,1021.18
2018-12-12T09:52:12.609Z,1021.19
2018-12-12T09:53:33.650Z,1021.18
2018-12-12T09:54:12.655Z,1021.22
2018-12-12T09:55:12.674Z,1021.27
2018-12-12T09:56:12.700Z,1021.28
2018-12-12T09:57:12.708Z,1021.27
2018-12-12T09:58:12.745Z,1021.31
2018-12-12T09:59:33.775Z,1021.29
2018-12-12T10:00:12.787Z,1021.31
2018-12-12T10:01:12.804Z,1021.30
2018-12-12T10:02:12.814Z,1021.32
2018-12-12T10:03:12.851Z,1021.30
2018-12-12T10:04:12.861Z,1021.32
2018-12-12T10:05:33.892Z,1021.27
2018-12-12T10:06:12.929Z,1021.30
2018-12-12T10:07:12.929Z,1021.27
2018-12-12T10:08:12.919Z,1021.32
2018-12-12T10:09:12.963Z,1021.34
2018-12-12T10:10:12.971Z,1021.36
2018-12-12T10:11:33.999Z,1021.30
2018-12-12T10:12:13.009Z,1021.30
2018-12-12T10:13:13.033Z,1021.31
2018-12-12T10:14:13.056Z,1021.33
2018-12-12T10:15:13.072Z,1021.33
2018-12-12T10:16:13.088Z,1021.32
2018-12-12T10:17:34.146Z,1021.33
2018-12-12T10:18:13.136Z,1021.34
2018-12-12T10:19:13.175Z,1021.28
2018-12-12T10:20:13.174Z,1021.29
2018-12-12T10:21:13.189Z,1021.35
2018-12-12T10:22:13.221Z,1021.29
2018-12-12T10:23:34.258Z,1021.33
2018-12-12T10:24:13.245Z,1021.33
2018-12-12T10:25:13.284Z,1021.33
2018-12-12T10:26:13.334Z,1021.33
2018-12-12T10:27:13.322Z,1021.33
2018-12-12T10:28:13.342Z,1021.33
2018-12-12T10:29:34.372Z,1021.30
2018-12-12T10:30:13.384Z,1021.31
2018-12-12T10:31:13.392Z,1021.26
2018-12-12T10:32:13.429Z,1021.19
2018-12-12T10:33:13.434Z,1021.20
2018-12-12T10:34:13.451Z,1021.25
2018-12-12T10:35:34.482Z,1021.26
2018-12-12T10:36:13.539Z,1021.27
2018-12-12T10:37:13.509Z,1021.28
2018-12-12T10:38:13.531Z,1021.30
2018-12-12T10:39:13.556Z,1021.32
2018-12-12T10:40:13.583Z,1021.32
2018-12-12T10:41:34.608Z,1021.31
2018-12-12T10:42:13.643Z,1021.32
2018-12-12T10:43:13.654Z,1021.30
2018-12-12T10:44:13.657Z,1021.32
2018-12-12T10:45:13.676Z,1021.31
2018-12-12T10:46:13.707Z,1021.30
2018-12-12T10:47:34.740Z,1021.34
2018-12-12T10:48:13.750Z,1021.36
2018-12-12T10:49:13.770Z,1021.33
2018-12-12T10:50:13.776Z,1021.32
2018-12-12T10:51:13.792Z,1021.36
2018-12-12T10:52:13.830Z,1021.33
2018-12-12T10:53:34.872Z,1021.37
2018-12-12T10:54:13.868Z,1021.35
2018-12-12T10:55:13.898Z,1021.37
2018-12-12T10:56:13.914Z,1021.31
2018-12-12T10:57:13.923Z,1021.33
2018-12-12T10:58:13.946Z,1021.33
2018-12-12T10:59:34.969Z,1021.38
2018-12-12T11:00:13.989Z,1021.35
2018-12-12T11:01:14.017Z,1021.34
2018-12-12T11:02:14.027Z,1021.37
2018-12-12T11:03:14.037Z,1021.37
2018-12-12T11:04:14.078Z,1021.36
2018-12-12T11:05:35.139Z,1021.34
2018-12-12T11:06:14.101Z,1021.35
2018-12-12T11:07:14.137Z,1021.37
2018-12-12T11:08:14.136Z,1021.38
2018-12-12T11:09:14.179Z,1021.40
2018-12-12T11:10:14.188Z,1021.38
2018-12-12T11:11:35.219Z,1021.39
2018-12-12T11:12:14.228Z,1021.36
2018-12-12T11:13:14.243Z,1021.42
2018-12-12T11:14:14.263Z,1021.41
2018-12-12T11:15:14.284Z,1021.40
2018-12-12T11:16:14.312Z,1021.42
2018-12-12T11:17:35.330Z,1021.38
2018-12-12T11:18:14.393Z,1021.42
2018-12-12T11:19:14.366Z,1021.42
2018-12-12T11:20:14.402Z,1021.39
2018-12-12T11:21:14.407Z,1021.41
2018-12-12T11:22:14.448Z,1021.43
2018-12-12T11:23:35.462Z,1021.44
2018-12-12T11:24:14.464Z,1021.43
2018-12-12T11:25:14.483Z,1021.48
2018-12-12T11:26:14.506Z,1021.45
2018-12-12T11:27:14.525Z,1021.43
2018-12-12T11:28:14.562Z,1021.44
2018-12-12T11:29:35.588Z,1021.42
2018-12-12T11:30:14.608Z,1021.42
2018-12-12T11:31:14.618Z,1021.39
2018-12-12T11:32:14.622Z,1021.44
2018-12-12T11:33:14.655Z,1021.40
2018-12-12T11:34:14.674Z,1021.42
2018-12-12T11:35:35.709Z,1021.42
2018-12-12T11:36:14.719Z,1021.43
2018-12-12T11:37:14.741Z,1021.44
2018-12-12T11:38:14.739Z,1021.44
2018-12-12T11:39:14.769Z,1021.46
2018-12-12T11:40:14.779Z,1021.44
2018-12-12T11:41:35.820Z,1021.41
2018-12-12T11:42:14.831Z,1021.45
2018-12-12T11:43:14.858Z,1021.40
2018-12-12T11:44:14.881Z,1021.40
2018-12-12T11:45:14.953Z,1021.37
2018-12-12T11:46:14.922Z,1021.40
2018-12-12T11:47:35.946Z,1021.42
2018-12-12T11:48:14.939Z,1021.39
2018-12-12T11:49:14.975Z,1021.32
2018-12-12T11:50:14.985Z,1021.37
2018-12-12T11:51:15.036Z,1021.43
2018-12-12T11:52:15.036Z,1021.38
2018-12-12T11:53:36.068Z,1021.41
2018-12-12T11:54:15.092Z,1021.39
2018-12-12T11:55:15.116Z,1021.38
2018-12-12T11:56:15.170Z,1021.36
2018-12-12T11:57:15.129Z,1021.41
2018-12-12T11:58:15.183Z,1021.39
2018-12-12T11:59:36.210Z,1021.36
2018-12-12T12:00:15.217Z,1021.38
2018-12-12T12:01:15.244Z,1021.38
2018-12-12T12:02:15.251Z,1021.36
2018-12-12T12:03:15.283Z,1021.41
2018-12-12T12:04:15.285Z,1021.36
2018-12-12T12:05:36.356Z,1021.41